KELM/ELM METAR and TAF weather

Enter ICAO airport designator
Station Type Date Time Source
KELM METAR 2019/08/24 08:53 UTC NOAA

KELM 240853Z AUTO 23004KT 10SM CLR 11/10 A3020 RMK AO2 SLP225 T01060100 53006


Station Type Date Time Source
KELM Decoded METAR 2019/08/24 08:53 UTC NOAA

Station name not available
Aug 24, 2019 - 04:53 AM EDT / 2019.08.24 0853 UTC
Wind: from the SW (230 degrees) at 5 MPH (4 KT):0
Visibility: 10 mile(s):0
Sky conditions: clear
Temperature: 51.1 F (10.6 C)
Dew Point: 50.0 F (10.0 C)
Relative Humidity: 96%
Pressure (altimeter): 30.2 in. Hg (1022 hPa)
Pressure tendency: 0.02 inches (0.6 hPa) higher than three hours ago
ob: KELM 240853Z AUTO 23004KT 10SM CLR 11/10 A3020 RMK AO2 SLP225 T01060100 53006
cycle: 9

Station Type Date Time Source
KELM TAF 2019/08/24 09:59 UTC NOAA

TAF
AMD KELM 240859Z 2409/2506 VRB03KT P6SM BKN035
FM241300 03006KT P6SM SCT050

Example: see airport list